sensor_id;sensor_type;location;lat;lon;timestamp;P1;durP1;ratioP1;P2;durP2;ratioP2
1725;SDS011;41776;48.260;8.928;2023-10-08T00:01:53;12.53;;;2.40;;
1725;SDS011;41776;48.260;8.928;2023-10-08T00:04:21;13.80;;;2.80;;
1725;SDS011;41776;48.260;8.928;2023-10-08T00:06:48;10.37;;;2.47;;
1725;SDS011;41776;48.260;8.928;2023-10-08T00:09:17;11.10;;;2.83;;
1725;SDS011;41776;48.260;8.928;2023-10-08T00:11:46;14.20;;;2.70;;
1725;SDS011;41776;48.260;8.928;2023-10-08T00:14:18;7.53;;;2.20;;
1725;SDS011;41776;48.260;8.928;2023-10-08T00:16:46;10.93;;;2.30;;
1725;SDS011;41776;48.260;8.928;2023-10-08T00:19:15;12.30;;;2.50;;
1725;SDS011;41776;48.260;8.928;2023-10-08T00:21:43;9.10;;;2.73;;
1725;SDS011;41776;48.260;8.928;2023-10-08T00:24:11;9.40;;;2.23;;
1725;SDS011;41776;48.260;8.928;2023-10-08T00:26:38;15.97;;;2.40;;
1725;SDS011;41776;48.260;8.928;2023-10-08T00:29:07;17.20;;;2.13;;
1725;SDS011;41776;48.260;8.928;2023-10-08T00:31:42;17.83;;;2.53;;
1725;SDS011;41776;48.260;8.928;2023-10-08T00:34:10;19.85;;;2.80;;
1725;SDS011;41776;48.260;8.928;2023-10-08T00:36:38;14.43;;;2.50;;
1725;SDS011;41776;48.260;8.928;2023-10-08T00:39:06;12.25;;;2.60;;
1725;SDS011;41776;48.260;8.928;2023-10-08T00:41:38;13.85;;;3.20;;
1725;SDS011;41776;48.260;8.928;2023-10-08T00:44:07;9.65;;;2.80;;
1725;SDS011;41776;48.260;8.928;2023-10-08T00:46:37;13.33;;;2.67;;
1725;SDS011;41776;48.260;8.928;2023-10-08T00:49:08;14.43;;;2.83;;
1725;SDS011;41776;48.260;8.928;2023-10-08T00:51:49;8.60;;;2.20;;
1725;SDS011;41776;48.260;8.928;2023-10-08T00:54:26;11.10;;;2.23;;
1725;SDS011;41776;48.260;8.928;2023-10-08T00:56:58;11.33;;;2.47;;
1725;SDS011;41776;48.260;8.928;2023-10-08T00:59:29;8.30;;;2.03;;
1725;SDS011;41776;48.260;8.928;2023-10-08T01:02:02;10.17;;;2.53;;
1725;SDS011;41776;48.260;8.928;2023-10-08T01:04:34;20.43;;;3.20;;
1725;SDS011;41776;48.260;8.928;2023-10-08T01:07:02;11.93;;;2.20;;
1725;SDS011;41776;48.260;8.928;2023-10-08T01:09:38;12.40;;;2.60;;
1725;SDS011;41776;48.260;8.928;2023-10-08T01:12:07;11.87;;;2.17;;
1725;SDS011;41776;48.260;8.928;2023-10-08T01:14:37;12.67;;;2.67;;
1725;SDS011;41776;48.260;8.928;2023-10-08T01:17:07;13.97;;;3.07;;
1725;SDS011;41776;48.260;8.928;2023-10-08T01:19:36;10.47;;;2.57;;
1725;SDS011;41776;48.260;8.928;2023-10-08T01:22:06;11.20;;;2.50;;
1725;SDS011;41776;48.260;8.928;2023-10-08T01:24:33;18.60;;;2.27;;
1725;SDS011;41776;48.260;8.928;2023-10-08T01:27:01;9.03;;;2.27;;
1725;SDS011;41776;48.260;8.928;2023-10-08T01:29:29;14.40;;;3.33;;
1725;SDS011;41776;48.260;8.928;2023-10-08T01:31:57;7.90;;;2.27;;
1725;SDS011;41776;48.260;8.928;2023-10-08T01:34:23;15.67;;;2.93;;
1725;SDS011;41776;48.260;8.928;2023-10-08T01:36:55;18.33;;;2.47;;
1725;SDS011;41776;48.260;8.928;2023-10-08T01:39:27;10.20;;;2.53;;
1725;SDS011;41776;48.260;8.928;2023-10-08T01:41:57;15.97;;;2.37;;
1725;SDS011;41776;48.260;8.928;2023-10-08T01:44:23;12.47;;;2.63;;
1725;SDS011;41776;48.260;8.928;2023-10-08T01:46:50;10.37;;;2.47;;
1725;SDS011;41776;48.260;8.928;2023-10-08T01:49:15;8.03;;;2.40;;
1725;SDS011;41776;48.260;8.928;2023-10-08T01:51:47;14.73;;;3.47;;
1725;SDS011;41776;48.260;8.928;2023-10-08T01:54:14;14.73;;;2.83;;
1725;SDS011;41776;48.260;8.928;2023-10-08T01:56:44;7.33;;;2.30;;
1725;SDS011;41776;48.260;8.928;2023-10-08T01:59:11;9.27;;;2.33;;
1725;SDS011;41776;48.260;8.928;2023-10-08T02:01:39;10.30;;;2.57;;
1725;SDS011;41776;48.260;8.928;2023-10-08T02:04:06;14.17;;;3.17;;
1725;SDS011;41776;48.260;8.928;2023-10-08T02:06:34;19.92;;;2.72;;
1725;SDS011;41776;48.260;8.928;2023-10-08T02:09:00;13.20;;;3.00;;
1725;SDS011;41776;48.260;8.928;2023-10-08T02:11:40;9.93;;;3.00;;
1725;SDS011;41776;48.260;8.928;2023-10-08T02:14:10;15.57;;;3.20;;
1725;SDS011;41776;48.260;8.928;2023-10-08T02:16:38;13.50;;;3.37;;
1725;SDS011;41776;48.260;8.928;2023-10-08T02:19:05;10.93;;;2.60;;
1725;SDS011;41776;48.260;8.928;2023-10-08T02:21:31;15.67;;;3.07;;
1725;SDS011;41776;48.260;8.928;2023-10-08T02:23:58;14.17;;;2.63;;
1725;SDS011;41776;48.260;8.928;2023-10-08T02:26:25;9.67;;;2.47;;
1725;SDS011;41776;48.260;8.928;2023-10-08T02:28:51;9.70;;;2.30;;
1725;SDS011;41776;48.260;8.928;2023-10-08T02:31:20;18.15;;;2.65;;
1725;SDS011;41776;48.260;8.928;2023-10-08T02:33:48;9.55;;;2.50;;
1725;SDS011;41776;48.260;8.928;2023-10-08T02:36:14;14.43;;;2.33;;
1725;SDS011;41776;48.260;8.928;2023-10-08T02:38:41;9.52;;;2.70;;
1725;SDS011;41776;48.260;8.928;2023-10-08T02:41:07;9.87;;;3.10;;
1725;SDS011;41776;48.260;8.928;2023-10-08T02:43:34;11.17;;;2.60;;
1725;SDS011;41776;48.260;8.928;2023-10-08T02:46:01;15.07;;;2.93;;
1725;SDS011;41776;48.260;8.928;2023-10-08T02:48:33;16.00;;;2.90;;
1725;SDS011;41776;48.260;8.928;2023-10-08T02:51:00;16.15;;;2.80;;
1725;SDS011;41776;48.260;8.928;2023-10-08T02:53:36;12.83;;;3.03;;
1725;SDS011;41776;48.260;8.928;2023-10-08T02:56:02;9.90;;;2.07;;
1725;SDS011;41776;48.260;8.928;2023-10-08T02:58:37;17.75;;;2.80;;
1725;SDS011;41776;48.260;8.928;2023-10-08T03:01:04;14.45;;;2.72;;
1725;SDS011;41776;48.260;8.928;2023-10-08T03:03:30;17.00;;;2.22;;
1725;SDS011;41776;48.260;8.928;2023-10-08T03:05:58;10.57;;;2.30;;
1725;SDS011;41776;48.260;8.928;2023-10-08T03:08:28;5.20;;;2.00;;
1725;SDS011;41776;48.260;8.928;2023-10-08T03:10:56;13.75;;;2.30;;
1725;SDS011;41776;48.260;8.928;2023-10-08T03:13:28;22.80;;;3.08;;
1725;SDS011;41776;48.260;8.928;2023-10-08T03:15:56;12.82;;;2.10;;
1725;SDS011;41776;48.260;8.928;2023-10-08T03:18:34;8.10;;;2.33;;
1725;SDS011;41776;48.260;8.928;2023-10-08T03:21:03;7.60;;;2.30;;
1725;SDS011;41776;48.260;8.928;2023-10-08T03:23:45;11.60;;;2.53;;
1725;SDS011;41776;48.260;8.928;2023-10-08T03:26:13;13.95;;;2.50;;
1725;SDS011;41776;48.260;8.928;2023-10-08T03:28:58;15.23;;;2.63;;
1725;SDS011;41776;48.260;8.928;2023-10-08T03:31:30;7.55;;;2.50;;
1725;SDS011;41776;48.260;8.928;2023-10-08T03:34:09;7.95;;;2.13;;
1725;SDS011;41776;48.260;8.928;2023-10-08T03:36:45;9.02;;;2.60;;
1725;SDS011;41776;48.260;8.928;2023-10-08T03:39:12;6.50;;;2.10;;
1725;SDS011;41776;48.260;8.928;2023-10-08T03:41:44;10.85;;;2.90;;
1725;SDS011;41776;48.260;8.928;2023-10-08T03:44:23;7.75;;;2.00;;
1725;SDS011;41776;48.260;8.928;2023-10-08T03:46:49;11.77;;;2.03;;
1725;SDS011;41776;48.260;8.928;2023-10-08T03:49:17;14.90;;;2.85;;
1725;SDS011;41776;48.260;8.928;2023-10-08T03:51:53;13.25;;;2.50;;
1725;SDS011;41776;48.260;8.928;2023-10-08T03:54:22;12.07;;;2.38;;
1725;SDS011;41776;48.260;8.928;2023-10-08T03:56:54;14.43;;;2.45;;
1725;SDS011;41776;48.260;8.928;2023-10-08T03:59:29;9.38;;;2.28;;
1725;SDS011;41776;48.260;8.928;2023-10-08T04:02:01;12.77;;;2.53;;
1725;SDS011;41776;48.260;8.928;2023-10-08T04:04:35;9.52;;;2.67;;
1725;SDS011;41776;48.260;8.928;2023-10-08T04:07:17;11.00;;;2.80;;
1725;SDS011;41776;48.260;8.928;2023-10-08T04:09:53;13.82;;;2.85;;
1725;SDS011;41776;48.260;8.928;2023-10-08T04:12:33;10.48;;;2.53;;
1725;SDS011;41776;48.260;8.928;2023-10-08T04:15:01;22.52;;;3.13;;
1725;SDS011;41776;48.260;8.928;2023-10-08T04:17:32;15.75;;;2.78;;
1725;SDS011;41776;48.260;8.928;2023-10-08T04:20:09;15.57;;;2.60;;
1725;SDS011;41776;48.260;8.928;2023-10-08T04:22:58;13.45;;;2.72;;
1725;SDS011;41776;48.260;8.928;2023-10-08T04:25:25;9.27;;;2.15;;
1725;SDS011;41776;48.260;8.928;2023-10-08T04:27:52;12.13;;;2.50;;
1725;SDS011;41776;48.260;8.928;2023-10-08T04:30:23;11.93;;;2.42;;
1725;SDS011;41776;48.260;8.928;2023-10-08T04:32:58;12.70;;;2.55;;
1725;SDS011;41776;48.260;8.928;2023-10-08T04:35:31;19.08;;;2.60;;
1725;SDS011;41776;48.260;8.928;2023-10-08T04:38:02;13.63;;;2.40;;
1725;SDS011;41776;48.260;8.928;2023-10-08T04:40:29;17.02;;;2.55;;
1725;SDS011;41776;48.260;8.928;2023-10-08T04:43:06;13.57;;;2.92;;
1725;SDS011;41776;48.260;8.928;2023-10-08T04:45:35;10.65;;;3.00;;
1725;SDS011;41776;48.260;8.928;2023-10-08T04:48:04;19.77;;;2.90;;
1725;SDS011;41776;48.260;8.928;2023-10-08T04:50:39;18.23;;;2.85;;
1725;SDS011;41776;48.260;8.928;2023-10-08T04:53:22;18.33;;;2.58;;
1725;SDS011;41776;48.260;8.928;2023-10-08T04:55:56;14.52;;;2.47;;
1725;SDS011;41776;48.260;8.928;2023-10-08T04:58:24;17.52;;;2.97;;
1725;SDS011;41776;48.260;8.928;2023-10-08T05:01:02;16.83;;;2.78;;
1725;SDS011;41776;48.260;8.928;2023-10-08T05:03:43;11.05;;;2.75;;
1725;SDS011;41776;48.260;8.928;2023-10-08T05:06:22;8.55;;;1.85;;
1725;SDS011;41776;48.260;8.928;2023-10-08T05:09:13;15.40;;;2.73;;
1725;SDS011;41776;48.260;8.928;2023-10-08T05:11:50;11.53;;;2.40;;
1725;SDS011;41776;48.260;8.928;2023-10-08T05:14:36;12.87;;;2.20;;
1725;SDS011;41776;48.260;8.928;2023-10-08T05:17:12;14.63;;;2.65;;
1725;SDS011;41776;48.260;8.928;2023-10-08T05:19:50;15.85;;;2.95;;
1725;SDS011;41776;48.260;8.928;2023-10-08T05:22:41;13.48;;;2.50;;
1725;SDS011;41776;48.260;8.928;2023-10-08T05:25:21;11.20;;;2.40;;
1725;SDS011;41776;48.260;8.928;2023-10-08T05:28:03;18.75;;;2.50;;
1725;SDS011;41776;48.260;8.928;2023-10-08T05:30:49;12.83;;;2.20;;
1725;SDS011;41776;48.260;8.928;2023-10-08T05:33:22;13.65;;;2.88;;
1725;SDS011;41776;48.260;8.928;2023-10-08T05:36:09;12.73;;;2.80;;
1725;SDS011;41776;48.260;8.928;2023-10-08T05:38:43;8.77;;;2.23;;
1725;SDS011;41776;48.260;8.928;2023-10-08T05:41:26;13.87;;;3.07;;
1725;SDS011;41776;48.260;8.928;2023-10-08T05:44:04;13.68;;;2.45;;
1725;SDS011;41776;48.260;8.928;2023-10-08T05:46:48;10.60;;;2.53;;
1725;SDS011;41776;48.260;8.928;2023-10-08T05:49:31;17.33;;;2.40;;
1725;SDS011;41776;48.260;8.928;2023-10-08T05:52:19;15.00;;;2.40;;
1725;SDS011;41776;48.260;8.928;2023-10-08T05:55:18;12.13;;;2.50;;
1725;SDS011;41776;48.260;8.928;2023-10-08T05:57:53;10.52;;;2.38;;
1725;SDS011;41776;48.260;8.928;2023-10-08T06:00:38;16.95;;;2.78;;
1725;SDS011;41776;48.260;8.928;2023-10-08T06:03:42;11.88;;;2.85;;
1725;SDS011;41776;48.260;8.928;2023-10-08T06:06:27;12.57;;;2.60;;
1725;SDS011;41776;48.260;8.928;2023-10-08T06:09:12;10.88;;;2.55;;
1725;SDS011;41776;48.260;8.928;2023-10-08T06:11:47;14.73;;;2.60;;
1725;SDS011;41776;48.260;8.928;2023-10-08T06:14:33;13.07;;;2.78;;
1725;SDS011;41776;48.260;8.928;2023-10-08T06:17:17;19.67;;;3.15;;
1725;SDS011;41776;48.260;8.928;2023-10-08T06:20:00;18.50;;;2.75;;
1725;SDS011;41776;48.260;8.928;2023-10-08T06:22:34;11.60;;;2.40;;
1725;SDS011;41776;48.260;8.928;2023-10-08T06:25:04;10.00;;;2.72;;
1725;SDS011;41776;48.260;8.928;2023-10-08T06:27:54;9.85;;;2.05;;
1725;SDS011;41776;48.260;8.928;2023-10-08T06:30:23;14.07;;;2.75;;
1725;SDS011;41776;48.260;8.928;2023-10-08T06:32:56;11.35;;;2.28;;
1725;SDS011;41776;48.260;8.928;2023-10-08T06:35:33;11.05;;;2.78;;
1725;SDS011;41776;48.260;8.928;2023-10-08T06:38:03;19.42;;;2.63;;
1725;SDS011;41776;48.260;8.928;2023-10-08T06:40:35;14.35;;;1.95;;
1725;SDS011;41776;48.260;8.928;2023-10-08T06:43:07;13.40;;;2.97;;
1725;SDS011;41776;48.260;8.928;2023-10-08T06:45:46;16.63;;;3.03;;
1725;SDS011;41776;48.260;8.928;2023-10-08T06:48:17;13.38;;;2.45;;
1725;SDS011;41776;48.260;8.928;2023-10-08T06:50:46;19.27;;;2.78;;
1725;SDS011;41776;48.260;8.928;2023-10-08T06:53:17;9.05;;;2.20;;
1725;SDS011;41776;48.260;8.928;2023-10-08T06:55:47;11.45;;;2.22;;
1725;SDS011;41776;48.260;8.928;2023-10-08T06:58:19;12.65;;;2.38;;
1725;SDS011;41776;48.260;8.928;2023-10-08T07:00:48;10.10;;;2.45;;
1725;SDS011;41776;48.260;8.928;2023-10-08T07:03:24;13.50;;;2.53;;
1725;SDS011;41776;48.260;8.928;2023-10-08T07:05:56;10.52;;;2.40;;
1725;SDS011;41776;48.260;8.928;2023-10-08T07:08:25;12.88;;;2.70;;
1725;SDS011;41776;48.260;8.928;2023-10-08T07:10:58;14.85;;;1.95;;
1725;SDS011;41776;48.260;8.928;2023-10-08T07:13:31;10.85;;;2.83;;
1725;SDS011;41776;48.260;8.928;2023-10-08T07:16:02;14.35;;;2.25;;
1725;SDS011;41776;48.260;8.928;2023-10-08T07:18:33;13.45;;;2.90;;
1725;SDS011;41776;48.260;8.928;2023-10-08T07:21:03;6.50;;;2.15;;
1725;SDS011;41776;48.260;8.928;2023-10-08T07:23:37;5.30;;;2.00;;
1725;SDS011;41776;48.260;8.928;2023-10-08T07:26:21;11.07;;;1.95;;
1725;SDS011;41776;48.260;8.928;2023-10-08T07:29:01;6.13;;;1.92;;
1725;SDS011;41776;48.260;8.928;2023-10-08T07:31:30;9.85;;;2.10;;
1725;SDS011;41776;48.260;8.928;2023-10-08T07:34:16;7.78;;;2.33;;
1725;SDS011;41776;48.260;8.928;2023-10-08T07:36:52;4.53;;;1.65;;
1725;SDS011;41776;48.260;8.928;2023-10-08T07:39:21;6.05;;;1.83;;
1725;SDS011;41776;48.260;8.928;2023-10-08T07:41:59;8.20;;;1.92;;
1725;SDS011;41776;48.260;8.928;2023-10-08T07:44:26;13.15;;;1.85;;
1725;SDS011;41776;48.260;8.928;2023-10-08T07:46:55;7.95;;;2.10;;
1725;SDS011;41776;48.260;8.928;2023-10-08T07:49:22;6.95;;;2.45;;
1725;SDS011;41776;48.260;8.928;2023-10-08T07:51:56;7.72;;;2.08;;
1725;SDS011;41776;48.260;8.928;2023-10-08T07:54:24;6.18;;;1.90;;
1725;SDS011;41776;48.260;8.928;2023-10-08T07:56:59;11.32;;;2.15;;
1725;SDS011;41776;48.260;8.928;2023-10-08T07:59:42;4.95;;;1.67;;
1725;SDS011;41776;48.260;8.928;2023-10-08T08:02:12;4.75;;;2.20;;
1725;SDS011;41776;48.260;8.928;2023-10-08T08:04:42;3.70;;;1.50;;
1725;SDS011;41776;48.260;8.928;2023-10-08T08:07:19;7.25;;;2.15;;
1725;SDS011;41776;48.260;8.928;2023-10-08T08:09:46;9.98;;;2.45;;
1725;SDS011;41776;48.260;8.928;2023-10-08T08:12:17;5.90;;;1.95;;
1725;SDS011;41776;48.260;8.928;2023-10-08T08:14:50;7.32;;;2.05;;
1725;SDS011;41776;48.260;8.928;2023-10-08T08:17:17;6.65;;;2.30;;
1725;SDS011;41776;48.260;8.928;2023-10-08T08:19:44;5.60;;;1.83;;
1725;SDS011;41776;48.260;8.928;2023-10-08T08:22:12;7.47;;;1.98;;
1725;SDS011;41776;48.260;8.928;2023-10-08T08:24:47;4.47;;;1.67;;
1725;SDS011;41776;48.260;8.928;2023-10-08T08:27:18;11.20;;;2.38;;
1725;SDS011;41776;48.260;8.928;2023-10-08T08:29:50;9.25;;;1.73;;
1725;SDS011;41776;48.260;8.928;2023-10-08T08:32:20;8.45;;;1.92;;
1725;SDS011;41776;48.260;8.928;2023-10-08T08:34:48;12.23;;;2.90;;
1725;SDS011;41776;48.260;8.928;2023-10-08T08:37:15;7.07;;;2.30;;
1725;SDS011;41776;48.260;8.928;2023-10-08T08:39:42;11.57;;;2.50;;
1725;SDS011;41776;48.260;8.928;2023-10-08T08:42:10;7.03;;;2.10;;
1725;SDS011;41776;48.260;8.928;2023-10-08T08:44:37;12.52;;;2.13;;
1725;SDS011;41776;48.260;8.928;2023-10-08T08:47:10;7.90;;;2.15;;
1725;SDS011;41776;48.260;8.928;2023-10-08T08:49:42;7.93;;;2.10;;
1725;SDS011;41776;48.260;8.928;2023-10-08T08:52:09;8.60;;;2.17;;
1725;SDS011;41776;48.260;8.928;2023-10-08T08:54:36;9.13;;;2.08;;
1725;SDS011;41776;48.260;8.928;2023-10-08T08:57:03;13.57;;;2.80;;
1725;SDS011;41776;48.260;8.928;2023-10-08T08:59:33;11.88;;;2.20;;
1725;SDS011;41776;48.260;8.928;2023-10-08T09:02:01;10.98;;;2.17;;
1725;SDS011;41776;48.260;8.928;2023-10-08T09:04:29;7.93;;;2.28;;
1725;SDS011;41776;48.260;8.928;2023-10-08T09:06:58;19.83;;;2.75;;
1725;SDS011;41776;48.260;8.928;2023-10-08T09:09:30;7.25;;;2.53;;
1725;SDS011;41776;48.260;8.928;2023-10-08T09:11:57;10.35;;;2.40;;
1725;SDS011;41776;48.260;8.928;2023-10-08T09:14:25;10.70;;;2.40;;
1725;SDS011;41776;48.260;8.928;2023-10-08T09:16:53;8.55;;;2.63;;
1725;SDS011;41776;48.260;8.928;2023-10-08T09:19:20;12.88;;;2.55;;
1725;SDS011;41776;48.260;8.928;2023-10-08T09:21:59;14.18;;;2.80;;
1725;SDS011;41776;48.260;8.928;2023-10-08T09:24:28;7.60;;;2.42;;
1725;SDS011;41776;48.260;8.928;2023-10-08T09:26:54;10.35;;;2.50;;
1725;SDS011;41776;48.260;8.928;2023-10-08T09:29:23;10.35;;;2.70;;
1725;SDS011;41776;48.260;8.928;2023-10-08T09:31:51;13.60;;;3.35;;
1725;SDS011;41776;48.260;8.928;2023-10-08T09:34:21;6.75;;;1.95;;
1725;SDS011;41776;48.260;8.928;2023-10-08T09:36:51;10.05;;;2.60;;
1725;SDS011;41776;48.260;8.928;2023-10-08T09:39:19;14.15;;;2.63;;
1725;SDS011;41776;48.260;8.928;2023-10-08T09:41:48;17.05;;;2.47;;
1725;SDS011;41776;48.260;8.928;2023-10-08T09:44:16;14.98;;;2.72;;
1725;SDS011;41776;48.260;8.928;2023-10-08T09:46:45;18.60;;;3.28;;
1725;SDS011;41776;48.260;8.928;2023-10-08T09:49:19;13.07;;;2.88;;
1725;SDS011;41776;48.260;8.928;2023-10-08T09:51:50;15.00;;;3.25;;
1725;SDS011;41776;48.260;8.928;2023-10-08T09:54:20;10.60;;;2.58;;
1725;SDS011;41776;48.260;8.928;2023-10-08T09:56:50;11.23;;;2.63;;
1725;SDS011;41776;48.260;8.928;2023-10-08T09:59:17;13.32;;;3.00;;
1725;SDS011;41776;48.260;8.928;2023-10-08T10:01:45;15.23;;;2.85;;
1725;SDS011;41776;48.260;8.928;2023-10-08T10:04:22;17.05;;;2.97;;
1725;SDS011;41776;48.260;8.928;2023-10-08T10:06:50;18.85;;;3.42;;
1725;SDS011;41776;48.260;8.928;2023-10-08T10:09:19;23.23;;;3.53;;
1725;SDS011;41776;48.260;8.928;2023-10-08T10:11:47;14.98;;;3.50;;
1725;SDS011;41776;48.260;8.928;2023-10-08T10:14:15;16.20;;;3.10;;
1725;SDS011;41776;48.260;8.928;2023-10-08T10:16:42;18.70;;;2.90;;
1725;SDS011;41776;48.260;8.928;2023-10-08T10:19:15;23.27;;;3.17;;
1725;SDS011;41776;48.260;8.928;2023-10-08T10:21:44;17.88;;;3.53;;
1725;SDS011;41776;48.260;8.928;2023-10-08T10:24:21;13.90;;;3.13;;
1725;SDS011;41776;48.260;8.928;2023-10-08T10:26:49;14.60;;;3.63;;
1725;SDS011;41776;48.260;8.928;2023-10-08T10:29:21;13.18;;;3.17;;
1725;SDS011;41776;48.260;8.928;2023-10-08T10:31:51;12.55;;;3.10;;
1725;SDS011;41776;48.260;8.928;2023-10-08T10:34:19;15.02;;;3.05;;
1725;SDS011;41776;48.260;8.928;2023-10-08T10:36:49;17.02;;;3.13;;
1725;SDS011;41776;48.260;8.928;2023-10-08T10:39:21;17.98;;;3.45;;
1725;SDS011;41776;48.260;8.928;2023-10-08T10:41:53;18.23;;;5.60;;
1725;SDS011;41776;48.260;8.928;2023-10-08T10:44:22;12.55;;;3.00;;
1725;SDS011;41776;48.260;8.928;2023-10-08T10:46:49;12.60;;;4.50;;
1725;SDS011;41776;48.260;8.928;2023-10-08T10:49:16;16.00;;;3.50;;
1725;SDS011;41776;48.260;8.928;2023-10-08T10:51:47;16.42;;;3.63;;
1725;SDS011;41776;48.260;8.928;2023-10-08T10:54:22;11.52;;;3.05;;
1725;SDS011;41776;48.260;8.928;2023-10-08T10:56:48;15.77;;;3.08;;
1725;SDS011;41776;48.260;8.928;2023-10-08T10:59:28;13.63;;;3.00;;
1725;SDS011;41776;48.260;8.928;2023-10-08T11:02:01;22.75;;;3.53;;
1725;SDS011;41776;48.260;8.928;2023-10-08T11:04:33;15.02;;;3.00;;
1725;SDS011;41776;48.260;8.928;2023-10-08T11:07:13;13.65;;;3.28;;
1725;SDS011;41776;48.260;8.928;2023-10-08T11:09:41;13.13;;;3.03;;
1725;SDS011;41776;48.260;8.928;2023-10-08T11:12:09;13.00;;;3.10;;
1725;SDS011;41776;48.260;8.928;2023-10-08T11:14:43;15.82;;;3.30;;
1725;SDS011;41776;48.260;8.928;2023-10-08T11:17:12;17.92;;;3.60;;
1725;SDS011;41776;48.260;8.928;2023-10-08T11:19:40;18.95;;;3.10;;
1725;SDS011;41776;48.260;8.928;2023-10-08T11:22:11;21.33;;;3.05;;
1725;SDS011;41776;48.260;8.928;2023-10-08T11:24:42;20.50;;;3.20;;
1725;SDS011;41776;48.260;8.928;2023-10-08T11:27:13;18.77;;;3.13;;
1725;SDS011;41776;48.260;8.928;2023-10-08T11:29:43;15.07;;;3.85;;
1725;SDS011;41776;48.260;8.928;2023-10-08T11:32:11;12.45;;;3.22;;
1725;SDS011;41776;48.260;8.928;2023-10-08T11:34:40;21.80;;;3.97;;
1725;SDS011;41776;48.260;8.928;2023-10-08T11:37:07;13.50;;;2.92;;
1725;SDS011;41776;48.260;8.928;2023-10-08T11:39:46;17.42;;;3.10;;
1725;SDS011;41776;48.260;8.928;2023-10-08T11:42:14;13.40;;;2.72;;
1725;SDS011;41776;48.260;8.928;2023-10-08T11:45:05;14.55;;;3.45;;
1725;SDS011;41776;48.260;8.928;2023-10-08T11:47:44;13.38;;;2.97;;
1725;SDS011;41776;48.260;8.928;2023-10-08T11:50:11;15.05;;;3.20;;
1725;SDS011;41776;48.260;8.928;2023-10-08T11:52:42;15.20;;;3.47;;
1725;SDS011;41776;48.260;8.928;2023-10-08T11:55:10;13.98;;;3.13;;
1725;SDS011;41776;48.260;8.928;2023-10-08T11:57:43;13.98;;;2.53;;
1725;SDS011;41776;48.260;8.928;2023-10-08T12:00:11;17.30;;;3.30;;
1725;SDS011;41776;48.260;8.928;2023-10-08T12:02:44;13.40;;;3.33;;
1725;SDS011;41776;48.260;8.928;2023-10-08T12:05:10;14.00;;;3.00;;
1725;SDS011;41776;48.260;8.928;2023-10-08T12:07:44;14.98;;;3.00;;
1725;SDS011;41776;48.260;8.928;2023-10-08T12:10:12;11.73;;;2.90;;
1725;SDS011;41776;48.260;8.928;2023-10-08T12:12:41;15.18;;;3.28;;
1725;SDS011;41776;48.260;8.928;2023-10-08T12:15:09;15.98;;;2.92;;
1725;SDS011;41776;48.260;8.928;2023-10-08T12:17:36;11.50;;;2.90;;
1725;SDS011;41776;48.260;8.928;2023-10-08T12:20:05;17.13;;;2.95;;
1725;SDS011;41776;48.260;8.928;2023-10-08T12:22:47;11.75;;;3.03;;
1725;SDS011;41776;48.260;8.928;2023-10-08T12:25:16;17.13;;;3.00;;
1725;SDS011;41776;48.260;8.928;2023-10-08T12:27:42;12.80;;;2.90;;
1725;SDS011;41776;48.260;8.928;2023-10-08T12:30:10;17.50;;;3.30;;
1725;SDS011;41776;48.260;8.928;2023-10-08T12:32:37;19.25;;;3.30;;
1725;SDS011;41776;48.260;8.928;2023-10-08T12:35:07;19.02;;;3.08;;
1725;SDS011;41776;48.260;8.928;2023-10-08T12:37:37;14.23;;;3.03;;
1725;SDS011;41776;48.260;8.928;2023-10-08T12:40:05;14.63;;;3.20;;
1725;SDS011;41776;48.260;8.928;2023-10-08T12:42:38;16.80;;;3.00;;
1725;SDS011;41776;48.260;8.928;2023-10-08T12:45:09;19.73;;;3.22;;
1725;SDS011;41776;48.260;8.928;2023-10-08T12:47:37;17.63;;;3.67;;
1725;SDS011;41776;48.260;8.928;2023-10-08T12:50:04;15.93;;;2.95;;
1725;SDS011;41776;48.260;8.928;2023-10-08T12:52:33;19.65;;;3.00;;
1725;SDS011;41776;48.260;8.928;2023-10-08T12:55:00;15.90;;;2.88;;
1725;SDS011;41776;48.260;8.928;2023-10-08T12:57:29;14.30;;;3.17;;
1725;SDS011;41776;48.260;8.928;2023-10-08T12:59:59;10.88;;;2.85;;
1725;SDS011;41776;48.260;8.928;2023-10-08T13:02:28;15.63;;;3.05;;
1725;SDS011;41776;48.260;8.928;2023-10-08T13:04:55;13.40;;;3.03;;
1725;SDS011;41776;48.260;8.928;2023-10-08T13:07:23;19.92;;;2.92;;
1725;SDS011;41776;48.260;8.928;2023-10-08T13:09:51;12.50;;;3.05;;
1725;SDS011;41776;48.260;8.928;2023-10-08T13:12:18;23.25;;;2.95;;
1725;SDS011;41776;48.260;8.928;2023-10-08T13:14:46;16.25;;;3.10;;
1725;SDS011;41776;48.260;8.928;2023-10-08T13:17:13;19.70;;;3.28;;
1725;SDS011;41776;48.260;8.928;2023-10-08T13:19:40;20.50;;;2.95;;
1725;SDS011;41776;48.260;8.928;2023-10-08T13:22:06;16.52;;;3.13;;
1725;SDS011;41776;48.260;8.928;2023-10-08T13:24:33;16.92;;;3.10;;
1725;SDS011;41776;48.260;8.928;2023-10-08T13:27:00;9.98;;;3.00;;
1725;SDS011;41776;48.260;8.928;2023-10-08T13:29:27;23.60;;;3.55;;
1725;SDS011;41776;48.260;8.928;2023-10-08T13:31:57;14.77;;;2.95;;
1725;SDS011;41776;48.260;8.928;2023-10-08T13:34:25;13.38;;;3.65;;
1725;SDS011;41776;48.260;8.928;2023-10-08T13:36:52;16.25;;;3.13;;
1725;SDS011;41776;48.260;8.928;2023-10-08T13:39:19;17.65;;;3.33;;
1725;SDS011;41776;48.260;8.928;2023-10-08T13:41:46;19.25;;;3.55;;
1725;SDS011;41776;48.260;8.928;2023-10-08T13:44:13;21.60;;;3.13;;
1725;SDS011;41776;48.260;8.928;2023-10-08T13:46:43;18.30;;;3.33;;
1725;SDS011;41776;48.260;8.928;2023-10-08T13:49:13;16.25;;;3.03;;
1725;SDS011;41776;48.260;8.928;2023-10-08T13:51:43;10.98;;;2.78;;
1725;SDS011;41776;48.260;8.928;2023-10-08T13:54:11;18.67;;;3.47;;
1725;SDS011;41776;48.260;8.928;2023-10-08T13:56:39;15.05;;;3.00;;
1725;SDS011;41776;48.260;8.928;2023-10-08T13:59:12;14.23;;;3.22;;
1725;SDS011;41776;48.260;8.928;2023-10-08T14:01:40;20.67;;;3.28;;
1725;SDS011;41776;48.260;8.928;2023-10-08T14:04:11;12.73;;;3.30;;
1725;SDS011;41776;48.260;8.928;2023-10-08T14:06:43;19.38;;;3.28;;
1725;SDS011;41776;48.260;8.928;2023-10-08T14:09:13;18.55;;;3.22;;
1725;SDS011;41776;48.260;8.928;2023-10-08T14:11:46;18.52;;;3.35;;
1725;SDS011;41776;48.260;8.928;2023-10-08T14:14:13;20.70;;;3.67;;
1725;SDS011;41776;48.260;8.928;2023-10-08T14:16:41;20.23;;;3.90;;
1725;SDS011;41776;48.260;8.928;2023-10-08T14:19:09;15.80;;;3.00;;
1725;SDS011;41776;48.260;8.928;2023-10-08T14:21:37;17.58;;;3.58;;
1725;SDS011;41776;48.260;8.928;2023-10-08T14:24:15;13.57;;;3.50;;
1725;SDS011;41776;48.260;8.928;2023-10-08T14:26:42;18.63;;;3.70;;
1725;SDS011;41776;48.260;8.928;2023-10-08T14:29:08;16.65;;;3.28;;
1725;SDS011;41776;48.260;8.928;2023-10-08T14:31:39;19.67;;;3.60;;
1725;SDS011;41776;48.260;8.928;2023-10-08T14:34:13;14.10;;;3.55;;
1725;SDS011;41776;48.260;8.928;2023-10-08T14:36:54;19.33;;;3.83;;
1725;SDS011;41776;48.260;8.928;2023-10-08T14:39:39;16.30;;;3.15;;
1725;SDS011;41776;48.260;8.928;2023-10-08T14:42:23;18.48;;;3.70;;
1725;SDS011;41776;48.260;8.928;2023-10-08T14:45:09;12.10;;;3.00;;
1725;SDS011;41776;48.260;8.928;2023-10-08T14:47:38;14.02;;;3.22;;
1725;SDS011;41776;48.260;8.928;2023-10-08T14:50:06;21.00;;;3.55;;
1725;SDS011;41776;48.260;8.928;2023-10-08T14:52:41;24.80;;;4.07;;
1725;SDS011;41776;48.260;8.928;2023-10-08T14:55:09;18.73;;;3.20;;
1725;SDS011;41776;48.260;8.928;2023-10-08T14:57:35;17.67;;;3.40;;
1725;SDS011;41776;48.260;8.928;2023-10-08T15:00:02;15.27;;;2.97;;
1725;SDS011;41776;48.260;8.928;2023-10-08T15:02:30;24.45;;;3.80;;
1725;SDS011;41776;48.260;8.928;2023-10-08T15:04:58;19.58;;;3.92;;
1725;SDS011;41776;48.260;8.928;2023-10-08T15:07:26;16.25;;;3.30;;
1725;SDS011;41776;48.260;8.928;2023-10-08T15:09:52;20.30;;;4.18;;
1725;SDS011;41776;48.260;8.928;2023-10-08T15:12:24;18.33;;;3.50;;
1725;SDS011;41776;48.260;8.928;2023-10-08T15:14:50;14.18;;;3.17;;
1725;SDS011;41776;48.260;8.928;2023-10-08T15:17:17;15.38;;;3.75;;